createdAt,value
2022-10-12T00:00:33.836Z,7.85
2022-10-12T00:05:36.651Z,7.80
2022-10-12T00:10:41.961Z,7.66
2022-10-12T00:15:46.093Z,7.61
2022-10-12T00:21:01.556Z,7.56
2022-10-12T00:26:05.724Z,7.51
2022-10-12T00:31:10.949Z,7.46
2022-10-12T00:36:15.360Z,7.39
2022-10-12T00:41:19.729Z,7.36
2022-10-12T00:46:27.839Z,7.38
2022-10-12T00:51:30.469Z,7.31
2022-10-12T00:56:34.705Z,7.24
2022-10-12T01:01:39.533Z,7.17
2022-10-12T01:06:42.433Z,7.15
2022-10-12T01:11:45.407Z,7.22
2022-10-12T01:16:53.681Z,7.17
2022-10-12T01:22:02.336Z,7.04
2022-10-12T01:27:19.837Z,6.98
2022-10-12T01:32:25.774Z,6.94
2022-10-12T01:37:33.529Z,6.87
2022-10-12T01:42:40.460Z,6.82
2022-10-12T01:47:48.274Z,6.82
2022-10-12T01:52:59.651Z,6.76
2022-10-12T01:58:13.133Z,6.74
2022-10-12T02:03:21.456Z,6.72
2022-10-12T02:08:26.084Z,6.70
2022-10-12T02:13:31.696Z,6.61
2022-10-12T02:18:36.715Z,6.50
2022-10-12T02:23:39.729Z,6.55
2022-10-12T02:28:44.650Z,6.52
2022-10-12T02:33:52.695Z,6.53
2022-10-12T02:38:59.693Z,6.47
2022-10-12T02:44:03.975Z,6.43
2022-10-12T02:49:08.481Z,6.39
2022-10-12T02:54:11.445Z,6.35
2022-10-12T02:59:14.460Z,6.25
2022-10-12T03:04:18.406Z,6.22
2022-10-12T03:09:21.026Z,6.19
2022-10-12T03:14:26.777Z,6.09
2022-10-12T03:19:30.894Z,6.09
2022-10-12T03:24:34.023Z,6.11
2022-10-12T03:29:36.628Z,6.10
2022-10-12T03:34:40.555Z,6.16
2022-10-12T03:39:43.158Z,6.19
2022-10-12T03:44:45.790Z,6.16
2022-10-12T03:49:49.796Z,6.11
2022-10-12T03:54:52.370Z,5.99
2022-10-12T03:59:54.981Z,5.94
2022-10-12T04:04:59.312Z,5.97
2022-10-12T04:10:01.955Z,5.94
2022-10-12T04:15:05.059Z,5.94
2022-10-12T04:20:11.694Z,5.88
2022-10-12T04:25:14.737Z,5.87
2022-10-12T04:30:17.598Z,5.86
2022-10-12T04:35:21.695Z,5.85
2022-10-12T04:40:24.440Z,5.73
2022-10-12T04:45:27.090Z,5.63
2022-10-12T04:50:31.132Z,5.61
2022-10-12T04:55:34.020Z,5.64
2022-10-12T05:00:36.688Z,5.58
2022-10-12T05:05:40.772Z,5.51
2022-10-12T05:10:43.400Z,5.44
2022-10-12T05:15:46.308Z,5.33
2022-10-12T05:20:54.517Z,5.35
2022-10-12T05:25:59.413Z,5.30
2022-10-12T05:31:01.988Z,5.30
2022-10-12T05:36:06.656Z,5.31
2022-10-12T05:41:09.377Z,5.25
2022-10-12T05:46:14.509Z,5.25
2022-10-12T05:51:18.843Z,5.25
2022-10-12T05:56:21.513Z,5.30
2022-10-12T06:01:24.235Z,5.44
2022-10-12T06:06:28.331Z,5.56
2022-10-12T06:11:34.042Z,5.61
2022-10-12T06:16:38.997Z,5.68
2022-10-12T06:21:42.962Z,5.85
2022-10-12T06:26:45.640Z,5.94
2022-10-12T06:31:51.608Z,5.97
2022-10-12T06:36:59.541Z,6.14
2022-10-12T06:42:04.650Z,6.29
2022-10-12T06:47:07.286Z,6.44
2022-10-12T06:52:11.302Z,6.47
2022-10-12T06:57:13.932Z,6.63
2022-10-12T07:02:16.559Z,6.81
2022-10-12T07:07:21.070Z,6.94
2022-10-12T07:12:23.689Z,7.07
2022-10-12T07:17:26.294Z,7.20
2022-10-12T07:22:30.362Z,7.33
2022-10-12T07:27:32.932Z,7.45
2022-10-12T07:32:35.586Z,7.53
2022-10-12T07:37:39.851Z,7.63
2022-10-12T07:43:11.614Z,7.78
2022-10-12T07:48:05.662Z,7.89
2022-10-12T07:53:09.759Z,8.00
2022-10-12T07:58:13.006Z,8.13
2022-10-12T08:03:16.710Z,8.26
2022-10-12T08:08:20.955Z,8.38
2022-10-12T08:13:23.563Z,8.49
2022-10-12T08:18:26.296Z,8.70
2022-10-12T08:23:30.326Z,8.88
2022-10-12T08:28:33.481Z,9.05
2022-10-12T08:33:36.231Z,9.23
2022-10-12T08:38:40.275Z,9.41
2022-10-12T08:43:52.298Z,9.57
2022-10-12T08:49:00.573Z,9.78
2022-10-12T08:54:06.943Z,9.97
2022-10-12T08:59:10.918Z,10.12
2022-10-12T09:04:21.167Z,10.32
2022-10-12T09:09:41.635Z,10.53
2022-10-12T09:14:48.253Z,10.71
2022-10-12T09:19:56.866Z,10.91
2022-10-12T09:25:02.275Z,11.16
2022-10-12T09:30:06.042Z,11.28
2022-10-12T09:35:08.944Z,11.40
2022-10-12T09:40:21.294Z,11.53
2022-10-12T09:45:24.263Z,11.70
2022-10-12T09:50:40.315Z,11.92
2022-10-12T09:55:53.663Z,12.17
2022-10-12T10:01:18.971Z,12.46
2022-10-12T10:06:25.026Z,12.66
2022-10-12T10:11:30.991Z,12.74
2022-10-12T10:16:33.641Z,12.86
2022-10-12T10:21:39.590Z,13.09
2022-10-12T10:26:54.822Z,13.37
2022-10-12T10:32:11.824Z,13.53
2022-10-12T10:37:16.117Z,13.78
2022-10-12T10:42:21.333Z,14.02
2022-10-12T10:47:24.065Z,14.36
2022-10-12T10:52:29.599Z,14.78
2022-10-12T10:57:34.983Z,15.21
2022-10-12T11:02:42.456Z,15.57
2022-10-12T11:07:48.937Z,16.02
2022-10-12T11:12:57.300Z,17.22
2022-10-12T11:18:04.666Z,21.37
2022-10-12T11:23:20.351Z,26.20
2022-10-12T11:28:25.928Z,29.05
2022-10-12T11:33:35.079Z,33.43
2022-10-12T11:38:42.195Z,33.31
2022-10-12T11:43:50.630Z,30.01
2022-10-12T11:48:57.588Z,26.95
2022-10-12T11:54:04.034Z,26.94
2022-10-12T11:59:14.853Z,26.94
2022-10-12T12:04:41.322Z,32.37
2022-10-12T12:09:50.277Z,37.29
2022-10-12T12:15:22.266Z,38.42
2022-10-12T12:20:57.787Z,37.65
2022-10-12T12:26:16.822Z,35.16
2022-10-12T12:31:28.747Z,32.75
2022-10-12T12:36:33.949Z,30.13
2022-10-12T12:41:56.378Z,28.38
2022-10-12T12:52:45.076Z,26.12
2022-10-12T12:57:57.909Z,25.58
2022-10-12T13:03:32.039Z,24.44
2022-10-12T13:08:43.012Z,23.74
2022-10-12T13:13:52.251Z,21.93
2022-10-12T13:19:00.283Z,20.72
2022-10-12T13:24:06.660Z,20.07
2022-10-12T13:29:17.451Z,19.77
2022-10-12T13:34:24.089Z,19.33
2022-10-12T13:39:27.267Z,19.14
2022-10-12T13:44:31.277Z,18.99
2022-10-12T13:49:42.155Z,18.95
2022-10-12T13:54:46.342Z,18.48
2022-10-12T13:59:52.435Z,17.86
2022-10-12T14:04:57.490Z,17.47
2022-10-12T14:10:04.666Z,17.14
2022-10-12T14:15:08.092Z,16.90
2022-10-12T14:20:25.985Z,16.79
2022-10-12T14:25:30.073Z,16.67
2022-10-12T14:30:34.652Z,16.61
2022-10-12T14:35:42.056Z,16.53
2022-10-12T14:40:44.941Z,16.54
2022-10-12T14:45:47.567Z,16.63
2022-10-12T14:50:51.723Z,16.76
2022-10-12T14:55:54.796Z,17.08
2022-10-12T15:00:58.118Z,17.36
2022-10-12T15:06:02.286Z,17.49
2022-10-12T15:11:05.276Z,17.83
2022-10-12T15:16:16.614Z,18.25
2022-10-12T15:21:20.979Z,18.34
2022-10-12T15:26:23.611Z,18.03
2022-10-12T15:31:26.364Z,18.04
2022-10-12T15:36:30.346Z,18.39
2022-10-12T15:41:33.077Z,18.36
2022-10-12T15:46:35.712Z,17.93
2022-10-12T15:51:41.325Z,17.36
2022-10-12T15:56:44.276Z,16.77
2022-10-12T16:01:46.927Z,16.17
2022-10-12T16:06:50.836Z,15.70
2022-10-12T16:11:53.454Z,15.31
2022-10-12T16:16:56.063Z,14.88
2022-10-12T16:22:01.158Z,14.59
2022-10-12T16:27:03.754Z,14.31
2022-10-12T16:32:06.493Z,14.11
2022-10-12T16:37:10.526Z,14.02
2022-10-12T16:42:13.283Z,13.87
2022-10-12T16:47:16.430Z,13.69
2022-10-12T16:52:20.613Z,13.56
2022-10-12T16:57:24.632Z,13.39
2022-10-12T17:02:28.268Z,13.29
2022-10-12T17:07:32.542Z,13.15
2022-10-12T17:12:35.185Z,12.93
2022-10-12T17:17:37.773Z,12.82
2022-10-12T17:22:41.752Z,12.78
2022-10-12T17:27:44.384Z,12.75
2022-10-12T17:32:46.971Z,12.69
2022-10-12T17:37:50.994Z,12.65
2022-10-12T17:42:53.651Z,12.50
2022-10-12T17:47:56.307Z,12.31
2022-10-12T17:53:00.705Z,12.18
2022-10-12T17:58:03.269Z,12.12
2022-10-12T18:03:06.116Z,12.12
2022-10-12T18:08:10.193Z,12.04
2022-10-12T18:13:12.977Z,11.97
2022-10-12T18:18:15.642Z,11.90
2022-10-12T18:23:20.135Z,11.78
2022-10-12T18:28:22.960Z,11.68
2022-10-12T18:33:26.034Z,11.64
2022-10-12T18:38:30.027Z,11.56
2022-10-12T18:43:32.927Z,11.58
2022-10-12T18:48:35.703Z,11.56
2022-10-12T18:53:39.685Z,11.52
2022-10-12T18:58:42.965Z,11.46
2022-10-12T19:03:46.190Z,11.43
2022-10-12T19:08:50.830Z,11.31
2022-10-12T19:13:54.292Z,11.24
2022-10-12T19:18:57.509Z,10.95
2022-10-12T19:24:04.631Z,10.86
2022-10-12T19:29:07.374Z,10.94
2022-10-12T19:34:12.411Z,10.98
2022-10-12T19:39:18.042Z,10.98
2022-10-12T19:44:20.734Z,10.94
2022-10-12T19:49:23.353Z,10.90
2022-10-12T19:54:27.364Z,10.89
2022-10-12T19:59:30.199Z,10.89
2022-10-12T20:04:32.851Z,10.86
2022-10-12T20:09:36.909Z,10.79
2022-10-12T20:14:39.614Z,10.74
2022-10-12T20:19:42.412Z,10.71
2022-10-12T20:24:46.582Z,10.68
2022-10-12T20:29:49.283Z,10.71
2022-10-12T20:34:52.647Z,10.77
2022-10-12T20:39:56.889Z,10.80
2022-10-12T20:44:59.523Z,10.87
2022-10-12T20:50:02.308Z,10.92
2022-10-12T20:55:07.628Z,10.99
2022-10-12T21:00:10.987Z,11.03
2022-10-12T21:05:13.563Z,11.09
2022-10-12T21:10:17.804Z,10.99
2022-10-12T21:15:20.552Z,10.95
2022-10-12T21:20:23.224Z,10.95
2022-10-12T21:25:28.370Z,10.88
2022-10-12T21:30:31.004Z,10.76
2022-10-12T21:35:33.703Z,10.75
2022-10-12T21:40:37.883Z,10.68
2022-10-12T21:45:40.462Z,10.53
2022-10-12T21:50:43.098Z,10.47
2022-10-12T21:55:47.034Z,10.39
2022-10-12T22:00:49.702Z,10.30
2022-10-12T22:05:52.328Z,10.35
2022-10-12T22:10:57.039Z,10.34
2022-10-12T22:16:03.475Z,10.31
2022-10-12T22:21:08.187Z,10.24
2022-10-12T22:26:16.139Z,10.08
2022-10-12T22:31:29.019Z,9.99
2022-10-12T22:36:32.097Z,9.95
2022-10-12T22:41:39.382Z,9.96
2022-10-12T22:46:42.135Z,9.95
2022-10-12T22:51:45.263Z,10.05
2022-10-12T22:56:51.212Z,10.13
2022-10-12T23:01:53.876Z,10.10
2022-10-12T23:06:58.237Z,10.06
2022-10-12T23:12:03.959Z,10.06
2022-10-12T23:17:06.793Z,9.96
2022-10-12T23:22:09.477Z,9.92
2022-10-12T23:27:13.655Z,9.89
2022-10-12T23:32:20.924Z,9.64
2022-10-12T23:37:23.786Z,9.63
2022-10-12T23:42:28.286Z,9.78
2022-10-12T23:47:31.177Z,9.81
2022-10-12T23:52:33.840Z,9.74
2022-10-12T23:57:46.713Z,9.65
